Time;durP1;ratioP1;P1;durP2;ratioP2;P2;SDS_P1;SDS_P2;PMS_P1;PMS_P2;Temp;Humidity;BMP_temperature;BMP_pressure;BME280_temperature;BME280_humidity;BME280_pressure;Samples;Min_cycle;Max_cycle;Signal;HPM_P1;HPM_P2
2021/08/04 00:00:24;;;;;;;1.57;1.33;;;;;;;18.65;81.11;100816.00;5094902;28;20441;-66
2021/08/04 00:02:50;;;;;;;1.23;1.13;;;;;;;18.64;83.71;100808.13;5094545;28;20988;-67
2021/08/04 00:05:17;;;;;;;2.90;1.67;;;;;;;18.52;85.54;100808.97;5094938;28;20440;-67
2021/08/04 00:07:44;;;;;;;1.27;1.10;;;;;;;18.46;87.01;100804.91;5094683;28;20484;-67
2021/08/04 00:10:11;;;;;;;1.80;1.20;;;;;;;18.43;89.53;100804.78;5094733;28;20519;-67
2021/08/04 00:12:39;;;;;;;1.53;1.20;;;;;;;18.33;91.17;100790.44;5094594;28;20460;-67
2021/08/04 00:15:06;;;;;;;2.37;1.60;;;;;;;18.26;93.05;100801.19;5094748;28;20436;-67
2021/08/04 00:17:33;;;;;;;3.37;1.20;;;;;;;18.13;93.61;100794.13;5094595;28;20436;-67
2021/08/04 00:20:00;;;;;;;3.97;1.73;;;;;;;18.04;94.87;100793.47;5094609;28;20447;-66
2021/08/04 00:22:26;;;;;;;2.07;1.67;;;;;;;17.92;95.97;100802.50;5094160;28;20475;-66
2021/08/04 00:24:53;;;;;;;2.13;1.30;;;;;;;17.80;96.25;100797.06;5094464;28;20447;-67
2021/08/04 00:27:19;;;;;;;2.10;1.60;;;;;;;17.77;98.14;100795.81;5094386;28;20476;-68
2021/08/04 00:29:47;;;;;;;2.43;1.73;;;;;;;17.65;99.68;100799.31;5094345;28;20444;-67
2021/08/04 00:32:13;;;;;;;1.37;1.27;;;;;;;17.57;100.00;100802.97;5094290;28;20843;-67
2021/08/04 00:34:40;;;;;;;2.17;1.63;;;;;;;17.46;100.00;100796.38;5093940;28;20956;-66
2021/08/04 00:37:06;;;;;;;2.50;2.30;;;;;;;17.48;100.00;100793.28;5094279;28;20448;-68
2021/08/04 00:39:32;;;;;;;2.83;1.43;;;;;;;17.47;100.00;100797.16;5093961;28;20476;-67
2021/08/04 00:41:59;;;;;;;1.90;1.60;;;;;;;17.36;100.00;100794.88;5093830;28;20481;-67
2021/08/04 00:44:25;;;;;;;5.80;2.30;;;;;;;17.37;100.00;100798.41;5094192;28;20436;-66
2021/08/04 00:46:53;;;;;;;2.00;1.40;;;;;;;17.32;100.00;100802.19;5093651;28;21015;-66
2021/08/04 00:49:20;;;;;;;2.00;1.73;;;;;;;17.37;100.00;100810.16;5094006;28;20436;-66
2021/08/04 00:51:46;;;;;;;3.10;1.83;;;;;;;17.36;100.00;100797.63;5093894;28;20467;-66
2021/08/04 00:54:13;;;;;;;2.80;2.13;;;;;;;17.33;100.00;100813.94;5093945;28;20802;-66
2021/08/04 00:56:39;;;;;;;2.23;1.53;;;;;;;17.32;100.00;100807.66;5093559;28;20929;-66
2021/08/04 00:59:07;;;;;;;2.10;1.90;;;;;;;17.36;100.00;100811.31;5093830;28;20459;-67
2021/08/04 01:01:41;;;;;;;1.90;1.33;;;;;;;17.35;100.00;100804.25;5093759;28;20440;-67
2021/08/04 01:04:12;;;;;;;1.80;1.60;;;;;;;17.37;100.00;100810.16;5093877;28;20448;-68
2021/08/04 01:06:47;;;;;;;1.60;1.40;;;;;;;17.37;100.00;100815.63;5093716;28;20468;-67
2021/08/04 01:09:15;;;;;;;3.00;2.20;;;;;;;17.37;100.00;100801.16;5093826;28;20424;-67
2021/08/04 01:11:47;;;;;;;1.33;1.20;;;;;;;17.40;100.00;100809.50;5093647;28;20483;-66
2021/08/04 01:14:16;;;;;;;2.50;1.63;;;;;;;17.37;100.00;100801.94;5092842;28;20942;-66
2021/08/04 01:16:44;;;;;;;2.13;1.40;;;;;;;17.37;100.00;100804.69;5093335;28;20929;-67
2021/08/04 01:19:18;;;;;;;2.27;1.67;;;;;;;17.30;100.00;100809.91;5093534;28;20440;-67
2021/08/04 01:21:53;;;;;;;2.07;1.70;;;;;;;17.30;100.00;100815.41;5093197;28;20480;-66
2021/08/04 01:24:25;;;;;;;2.37;2.17;;;;;;;17.29;100.00;100813.00;5093596;28;20412;-66
2021/08/04 01:26:54;;;;;;;1.90;1.50;;;;;;;17.26;100.00;100811.75;5093554;28;20476;-67
2021/08/04 01:29:24;;;;;;;1.70;1.40;;;;;;;17.22;100.00;100812.75;5093184;28;20956;-67
2021/08/04 01:31:54;;;;;;;1.63;1.40;;;;;;;17.13;100.00;100816.41;5093407;28;20467;-66
2021/08/04 01:34:21;;;;;;;2.60;1.67;;;;;;;17.16;100.00;100812.19;5093421;28;20610;-67
2021/08/04 01:36:50;;;;;;;2.20;1.83;;;;;;;17.11;100.00;100815.94;5093284;28;20553;-67
2021/08/04 01:39:18;;;;;;;2.40;1.77;;;;;;;17.00;100.00;100813.97;5093329;28;20440;-66
2021/08/04 01:41:46;;;;;;;1.70;1.30;;;;;;;16.94;100.00;100807.91;5093283;28;20460;-66
2021/08/04 01:44:15;;;;;;;3.20;2.27;;;;;;;16.83;100.00;100807.56;5093300;28;20494;-67
2021/08/04 01:46:43;;;;;;;2.23;1.70;;;;;;;16.80;100.00;100808.22;5092913;28;20484;-67
2021/08/04 01:49:10;;;;;;;2.70;2.03;;;;;;;16.81;100.00;100801.63;5093274;28;20440;-66
2021/08/04 01:51:37;;;;;;;2.60;2.23;;;;;;;16.81;100.00;100798.88;5094758;28;20467;-67
2021/08/04 01:54:05;;;;;;;2.87;1.83;;;;;;;16.88;100.00;100804.59;5097387;28;20822;-66
2021/08/04 01:56:31;;;;;;;2.20;1.93;;;;;;;16.83;100.00;100802.09;5097087;28;20972;-66
2021/08/04 01:58:58;;;;;;;5.20;2.27;;;;;;;16.90;100.00;100807.00;5097031;28;20444;-67
2021/08/04 02:01:26;;;;;;;2.73;1.43;;;;;;;16.87;100.00;100802.22;5097120;28;20444;-66
2021/08/04 02:03:53;;;;;;;3.77;2.07;;;;;;;16.87;100.00;100803.03;5097223;28;20463;-67
2021/08/04 02:06:24;;;;;;;1.77;1.07;;;;;;;16.86;100.00;100804.13;5097120;28;21008;-67
2021/08/04 02:08:59;;;;;;;2.07;1.50;;;;;;;16.86;100.00;100801.41;5097074;28;20803;-66
2021/08/04 02:11:35;;;;;;;2.43;2.10;;;;;;;16.96;100.00;100802.13;5097042;28;20880;-67
2021/08/04 02:14:05;;;;;;;3.30;2.20;;;;;;;16.95;100.00;100804.03;5097136;28;20432;-66
2021/08/04 02:16:38;;;;;;;2.40;1.40;;;;;;;16.87;100.00;100805.75;5097014;28;20513;-69
2021/08/04 02:19:16;;;;;;;2.73;1.53;;;;;;;16.72;100.00;100800.06;5096925;28;20837;-67
2021/08/04 02:21:48;;;;;;;6.20;2.10;;;;;;;16.68;100.00;100804.63;5096635;28;20483;-66
2021/08/04 02:24:18;;;;;;;4.13;2.20;;;;;;;16.71;100.00;100796.53;5120877;22;20523;-69
2021/08/04 02:26:46;;;;;;;2.90;2.17;;;;;;;16.71;100.00;100799.28;5096596;28;20480;-69
2021/08/04 02:29:14;;;;;;;2.97;2.27;;;;;;;16.69;100.00;100800.75;5096696;28;20455;-70
2021/08/04 02:31:43;;;;;;;8.70;1.90;;;;;;;16.75;100.00;100794.78;5088342;28;20468;-69
2021/08/04 02:34:10;;;;;;;2.47;2.27;;;;;;;16.78;100.00;100796.84;5076227;28;20475;-69
2021/08/04 02:36:36;;;;;;;2.40;2.20;;;;;;;16.79;100.00;100798.44;5076103;28;20449;-70
2021/08/04 02:39:03;;;;;;;2.33;2.00;;;;;;;16.85;100.00;100805.28;5076217;28;20440;-69
2021/08/04 02:41:31;;;;;;;2.67;1.90;;;;;;;16.84;100.00;100806.41;5076245;28;20432;-68
2021/08/04 02:43:58;;;;;;;4.13;2.00;;;;;;;16.85;100.00;100808.00;5075801;28;20465;-69
2021/08/04 02:46:25;;;;;;;1.83;1.70;;;;;;;16.89;100.00;100808.13;5076019;28;20452;-69
2021/08/04 02:48:53;;;;;;;5.50;2.97;;;;;;;16.94;100.00;100810.66;5075830;28;20425;-69
2021/08/04 02:51:23;;;;;;;3.57;2.20;;;;;;;16.91;100.00;100811.34;5076031;28;20441;-70
2021/08/04 02:53:54;;;;;;;4.63;2.03;;;;;;;16.89;100.00;100810.88;5075981;28;20492;-69
2021/08/04 02:56:20;;;;;;;2.23;1.77;;;;;;;16.84;100.00;100809.16;5075597;28;20850;-69
2021/08/04 02:58:47;;;;;;;2.93;1.60;;;;;;;16.89;100.00;100808.94;5075869;28;20444;-69
2021/08/04 03:01:13;;;;;;;2.20;1.90;;;;;;;16.89;100.00;100810.88;5075802;28;20449;-69
2021/08/04 03:03:40;;;;;;;1.93;1.40;;;;;;;16.88;100.00;100810.09;5075646;28;20470;-70
2021/08/04 03:06:07;;;;;;;3.67;2.20;;;;;;;16.83;100.00;100804.81;5075720;28;20461;-69
2021/08/04 03:08:34;;;;;;;2.90;2.13;;;;;;;16.83;100.00;100815.78;5075658;28;20473;-69
2021/08/04 03:11:00;;;;;;;1.80;1.70;;;;;;;16.85;100.00;100816.22;5075615;28;20445;-69
2021/08/04 03:13:27;;;;;;;2.20;1.80;;;;;;;16.86;100.00;100809.59;5075223;28;20982;-69
2021/08/04 03:15:55;;;;;;;2.33;1.87;;;;;;;16.80;100.00;100808.22;5075547;28;20859;-69
2021/08/04 03:18:21;;;;;;;2.00;1.80;;;;;;;16.80;100.00;100808.22;5075573;28;20441;-69
2021/08/04 03:20:48;;;;;;;1.67;1.57;;;;;;;16.77;100.00;100814.38;5075467;28;20442;-69
2021/08/04 03:23:16;;;;;;;1.43;1.23;;;;;;;16.76;100.00;100822.91;5075102;28;20473;-70
2021/08/04 03:25:42;;;;;;;1.87;1.50;;;;;;;16.72;100.00;100813.75;5075430;28;20475;-70
2021/08/04 03:28:08;;;;;;;2.83;1.83;;;;;;;16.80;100.00;100815.63;5075244;28;20485;-68
2021/08/04 03:30:35;;;;;;;2.50;1.73;;;;;;;16.82;100.00;100822.38;5075285;28;20441;-68
2021/08/04 03:33:01;;;;;;;1.53;1.30;;;;;;;16.88;100.00;100814.75;5075182;28;20461;-68
2021/08/04 03:35:28;;;;;;;3.33;1.97;;;;;;;16.92;100.00;100815.69;5075167;28;20452;-68
2021/08/04 03:37:54;;;;;;;2.03;1.67;;;;;;;16.89;100.00;100822.63;5075118;28;20441;-69
2021/08/04 03:40:22;;;;;;;2.40;2.20;;;;;;;16.90;100.00;100809.72;5075132;28;20449;-69
2021/08/04 03:42:49;;;;;;;3.07;1.67;;;;;;;16.83;100.00;100813.03;5091020;28;20456;-69
2021/08/04 03:45:15;;;;;;;1.50;1.40;;;;;;;16.88;100.00;100817.50;5094943;28;20433;-69
2021/08/04 03:47:42;;;;;;;2.20;1.90;;;;;;;16.92;100.00;100815.69;5095112;28;20488;-69
2021/08/04 03:50:10;;;;;;;1.50;1.40;;;;;;;16.86;100.00;100826.03;5095107;28;20444;-71
2021/08/04 03:52:36;;;;;;;3.17;2.57;;;;;;;16.89;100.00;100817.16;5095005;28;20443;-73
2021/08/04 03:55:03;;;;;;;2.23;1.90;;;;;;;16.87;100.00;100830.38;5095087;28;20440;-71
2021/08/04 03:57:31;;;;;;;2.03;1.80;;;;;;;16.87;100.00;100818.63;5094995;28;20445;-72
2021/08/04 03:59:57;;;;;;;1.70;1.60;;;;;;;16.79;100.00;100820.31;5095012;28;20445;-71
2021/08/04 04:02:24;;;;;;;2.40;2.07;;;;;;;16.82;100.00;100818.81;5094688;28;20872;-70
2021/08/04 04:04:50;;;;;;;2.80;2.03;;;;;;;16.88;100.00;100831.97;5094805;28;20456;-70
2021/08/04 04:07:16;;;;;;;2.23;2.03;;;;;;;16.91;100.00;100819.56;5094413;28;21049;-70
2021/08/04 04:09:43;;;;;;;1.80;1.63;;;;;;;16.95;100.00;100828.66;5094646;28;20449;-70
2021/08/04 04:12:10;;;;;;;3.23;2.20;;;;;;;16.92;100.00;100828.56;5094790;28;20436;-70
2021/08/04 04:14:38;;;;;;;3.03;1.70;;;;;;;16.85;100.00;100821.69;5094193;28;20463;-71
2021/08/04 04:17:04;;;;;;;4.43;2.20;;;;;;;16.87;100.00;100826.84;5094607;28;20447;-70
2021/08/04 04:19:31;;;;;;;1.97;1.47;;;;;;;16.89;100.00;100819.09;5094551;28;20443;-70
2021/08/04 04:21:58;;;;;;;3.00;2.70;;;;;;;16.89;100.00;100828.09;5094504;28;20443;-70
2021/08/04 04:24:24;;;;;;;2.90;1.93;;;;;;;16.97;100.00;100833.81;5094024;28;20551;-70
2021/08/04 04:26:51;;;;;;;2.07;1.90;;;;;;;17.02;100.00;100828.94;5094477;28;20440;-71
2021/08/04 04:29:17;;;;;;;2.80;2.03;;;;;;;17.03;100.00;100830.53;5094583;28;20506;-70
2021/08/04 04:31:45;;;;;;;1.23;1.03;;;;;;;17.03;100.00;100832.47;5094449;28;20451;-70
2021/08/04 04:34:12;;;;;;;2.90;2.00;;;;;;;17.01;100.00;100826.53;5094241;28;20474;-70
2021/08/04 04:36:38;;;;;;;2.30;2.03;;;;;;;17.01;100.00;100837.50;5094259;28;20437;-71
2021/08/04 04:39:05;;;;;;;2.90;1.60;;;;;;;17.01;100.00;100838.28;5094271;28;20822;-70
2021/08/04 04:41:31;;;;;;;2.67;1.30;;;;;;;16.97;100.00;100844.78;5094138;28;20459;-71
2021/08/04 04:43:58;;;;;;;2.37;1.93;;;;;;;16.98;100.00;100846.38;5094079;28;20467;-70
2021/08/04 04:46:24;;;;;;;2.53;1.97;;;;;;;16.98;100.00;100851.84;5094126;28;20452;-71
2021/08/04 04:48:52;;;;;;;2.83;1.83;;;;;;;16.98;100.00;100844.41;5093932;28;20484;-70
2021/08/04 04:51:18;;;;;;;4.73;1.90;;;;;;;16.99;100.00;100850.69;5094025;28;20815;-70
2021/08/04 04:53:45;;;;;;;1.90;1.53;;;;;;;17.01;100.00;100857.44;5093876;28;20460;-71
2021/08/04 04:56:11;;;;;;;4.17;1.93;;;;;;;17.09;100.00;100845.59;5093907;28;20444;-70
2021/08/04 04:58:38;;;;;;;3.47;1.70;;;;;;;17.14;100.00;100850.06;5093459;28;20964;-72
2021/08/04 05:01:04;;;;;;;1.90;1.67;;;;;;;17.14;100.00;100853.59;5093774;28;20447;-70
2021/08/04 05:03:31;;;;;;;3.43;1.37;;;;;;;17.23;100.00;100856.25;5093728;28;20537;-71
2021/08/04 05:05:58;;;;;;;2.77;2.27;;;;;;;17.30;100.00;100866.63;5093542;28;20440;-70
2021/08/04 05:08:25;;;;;;;5.70;1.83;;;;;;;17.33;100.00;100858.53;5093616;28;20484;-71
2021/08/04 05:10:51;;;;;;;2.27;1.47;;;;;;;17.35;100.00;100860.91;5093652;28;20467;-70
2021/08/04 05:13:18;;;;;;;3.90;2.00;;;;;;;17.38;100.00;100866.53;5093631;28;20468;-70
2021/08/04 05:15:44;;;;;;;1.97;1.60;;;;;;;17.39;100.00;100859.91;5093589;28;20447;-71
2021/08/04 05:18:11;;;;;;;3.57;1.90;;;;;;;17.45;100.00;100865.97;5093640;28;20447;-69
2021/08/04 05:20:39;;;;;;;2.20;1.93;;;;;;;17.49;100.00;100860.63;5093532;28;20444;-70
2021/08/04 05:23:07;;;;;;;2.60;1.70;;;;;;;17.54;100.00;100869.41;5093469;28;20480;-71
2021/08/04 05:25:33;;;;;;;1.90;1.70;;;;;;;17.56;100.00;100869.06;5092579;28;20440;-69
2021/08/04 05:28:00;;;;;;;2.00;1.63;;;;;;;17.61;100.00;100871.56;5093199;28;20564;-70
2021/08/04 05:30:27;;;;;;;2.90;2.07;;;;;;;17.61;100.00;100868.81;5093497;28;20444;-73
2021/08/04 05:32:53;;;;;;;2.17;1.53;;;;;;;17.72;100.00;100877.41;5093081;28;20463;-74
2021/08/04 05:35:19;;;;;;;2.17;1.63;;;;;;;17.78;100.00;100873.31;5093567;28;20444;-70
2021/08/04 05:37:46;;;;;;;1.73;1.50;;;;;;;17.83;100.00;100864.88;5093356;28;20861;-71
2021/08/04 05:40:15;;;;;;;2.90;1.97;;;;;;;17.90;100.00;100874.13;5093037;28;20963;-71
2021/08/04 05:42:41;;;;;;;4.30;2.03;;;;;;;17.96;100.00;100876.63;5093161;28;20432;-70
2021/08/04 05:45:09;;;;;;;1.73;1.60;;;;;;;18.02;100.00;100878.00;5093318;28;20444;-69
2021/08/04 05:47:35;;;;;;;6.17;1.70;;;;;;;18.04;100.00;100876.50;5092859;28;21003;-70
2021/08/04 05:50:02;;;;;;;3.00;1.90;;;;;;;18.16;100.00;100883.94;5093081;28;20816;-72
2021/08/04 05:52:28;;;;;;;1.37;1.27;;;;;;;18.21;100.00;100883.69;5093042;28;20448;-69
2021/08/04 05:54:55;;;;;;;2.63;1.77;;;;;;;18.28;100.00;100886.66;5092911;28;20472;-70
2021/08/04 05:57:23;;;;;;;1.60;1.37;;;;;;;18.41;100.00;100884.66;5092956;28;20793;-70
2021/08/04 05:59:49;;;;;;;1.70;1.60;;;;;;;18.49;100.00;100888.44;5092955;28;20467;-70
2021/08/04 06:02:16;;;;;;;2.67;1.43;;;;;;;18.57;100.00;100898.47;5092893;28;20445;-69
2021/08/04 06:04:42;;;;;;;2.03;1.80;;;;;;;18.62;99.93;100895.47;5092554;28;20482;-71
2021/08/04 06:07:09;;;;;;;3.23;2.00;;;;;;;18.66;98.40;100897.19;5092939;28;20445;-68
2021/08/04 06:09:35;;;;;;;2.00;1.50;;;;;;;18.72;97.95;100896.97;5092818;28;20476;-70
2021/08/04 06:12:02;;;;;;;3.07;1.73;;;;;;;18.70;97.55;100891.81;5092509;28;20956;-68
2021/08/04 06:14:29;;;;;;;3.67;2.23;;;;;;;18.75;97.27;100897.06;5092911;28;20460;-68
2021/08/04 06:16:56;;;;;;;1.77;1.50;;;;;;;18.80;97.13;100896.81;5092998;28;20436;-69
2021/08/04 06:19:23;;;;;;;3.10;2.37;;;;;;;18.86;97.23;100895.44;5092873;28;20437;-70
2021/08/04 06:21:49;;;;;;;3.60;1.97;;;;;;;18.94;97.60;100901.91;5092803;28;20445;-70
2021/08/04 06:24:16;;;;;;;2.70;2.30;;;;;;;19.01;97.59;100898.56;5092637;28;20484;-68
2021/08/04 06:26:43;;;;;;;2.60;1.87;;;;;;;19.06;96.61;100898.31;5092633;28;20446;-70
2021/08/04 06:29:09;;;;;;;4.20;2.17;;;;;;;19.09;96.86;100903.91;5092587;28;20558;-70
2021/08/04 06:31:37;;;;;;;3.47;1.87;;;;;;;19.11;96.11;100900.78;5092634;28;20445;-70
2021/08/04 06:34:03;;;;;;;2.27;1.93;;;;;;;19.16;94.95;100908.78;5092674;28;20479;-70
2021/08/04 06:36:30;;;;;;;1.83;1.60;;;;;;;19.19;94.14;100902.59;5092563;28;20478;-70
2021/08/04 06:38:57;;;;;;;2.20;2.00;;;;;;;19.24;93.40;100899.59;5096141;28;20452;-70
2021/08/04 06:41:23;;;;;;;2.60;2.30;;;;;;;19.23;91.24;100908.97;5096533;28;20820;-70
2021/08/04 06:43:50;;;;;;;3.57;2.17;;;;;;;19.21;90.12;100899.47;5096268;28;20460;-70
2021/08/04 06:46:16;;;;;;;3.33;2.00;;;;;;;19.24;89.71;100901.53;5096130;28;20439;-69
2021/08/04 06:48:45;;;;;;;4.23;2.30;;;;;;;19.25;88.95;100900.38;5096023;28;20479;-70
2021/08/04 06:51:12;;;;;;;3.00;1.80;;;;;;;19.29;89.56;100906.78;5096276;28;20452;-69
2021/08/04 06:53:38;;;;;;;3.30;1.90;;;;;;;19.39;91.44;100904.31;5095739;28;20887;-71
2021/08/04 06:56:05;;;;;;;4.70;1.97;;;;;;;19.44;91.53;100902.47;5095993;28;20444;-71
2021/08/04 06:58:32;;;;;;;3.83;2.27;;;;;;;19.46;91.17;100900.16;5095917;28;20475;-71
2021/08/04 07:00:58;;;;;;;3.43;2.40;;;;;;;19.52;92.38;100904.22;5095924;28;20453;-71
2021/08/04 07:03:25;;;;;;;2.20;2.00;;;;;;;19.56;92.24;100903.16;5095752;28;20852;-71
2021/08/04 07:05:53;;;;;;;4.87;2.07;;;;;;;19.63;92.07;100894.34;5095751;28;20538;-69
2021/08/04 07:08:24;;;;;;;3.27;2.07;;;;;;;19.65;91.72;100909.31;5095785;28;20533;-70
2021/08/04 07:10:51;;;;;;;2.03;1.33;;;;;;;19.71;92.86;100901.63;5095634;28;20822;-70
2021/08/04 07:13:17;;;;;;;3.00;1.73;;;;;;;19.73;92.61;100895.75;5095806;28;20468;-69
2021/08/04 07:15:43;;;;;;;4.00;3.10;;;;;;;19.77;91.70;100904.88;5095871;28;20856;-71
2021/08/04 07:18:10;;;;;;;2.30;1.70;;;;;;;19.79;91.59;100908.88;5095749;28;20436;-70
2021/08/04 07:20:37;;;;;;;3.13;2.00;;;;;;;19.83;91.36;100918.03;5095791;28;20480;-71
2021/08/04 07:23:05;;;;;;;3.63;2.97;;;;;;;19.82;89.72;100913.66;5095494;28;20472;-71
2021/08/04 07:25:32;;;;;;;2.73;2.20;;;;;;;19.83;89.12;100917.19;5095792;28;20413;-71
2021/08/04 07:27:58;;;;;;;3.33;2.23;;;;;;;19.83;88.57;100909.78;5095565;28;20451;-71
2021/08/04 07:30:26;;;;;;;2.30;1.90;;;;;;;19.93;88.97;100915.88;5095522;28;20444;-72
2021/08/04 07:32:52;;;;;;;3.00;1.87;;;;;;;19.99;88.58;100915.25;5095637;28;20471;-70
2021/08/04 07:35:19;;;;;;;2.60;2.00;;;;;;;20.13;88.45;100920.28;5095526;28;20455;-70
2021/08/04 07:37:45;;;;;;;2.57;1.40;;;;;;;20.24;88.01;100924.09;5094936;28;21007;-71
2021/08/04 07:40:16;;;;;;;2.83;1.63;;;;;;;20.41;87.44;100917.38;5095401;28;21020;-70
2021/08/04 07:42:42;;;;;;;2.80;1.90;;;;;;;20.57;87.16;100917.34;5095311;28;20432;-71
2021/08/04 07:45:09;;;;;;;2.67;1.97;;;;;;;20.73;85.84;100922.81;5095256;28;20436;-70
2021/08/04 07:47:36;;;;;;;2.57;2.03;;;;;;;20.86;85.87;100925.06;5095124;28;20452;-71
2021/08/04 07:50:03;;;;;;;3.20;2.10;;;;;;;20.97;84.90;100918.94;5093915;28;21050;-70
2021/08/04 07:52:30;;;;;;;2.93;2.00;;;;;;;21.07;83.54;100929.38;5095042;28;20445;-70
2021/08/04 07:54:56;;;;;;;2.30;2.10;;;;;;;21.15;82.67;100934.66;5094994;28;20444;-71
2021/08/04 07:57:24;;;;;;;2.33;1.97;;;;;;;21.20;82.15;100930.03;5101371;28;20441;-72
2021/08/04 07:59:50;;;;;;;2.60;1.93;;;;;;;21.18;81.84;100938.66;5095405;28;20433;-70
2021/08/04 08:02:17;;;;;;;2.50;2.20;;;;;;;21.24;79.75;100928.91;5094934;28;20444;-71
2021/08/04 08:04:43;;;;;;;2.00;1.33;;;;;;;21.27;80.21;100925.44;5094793;28;20530;-71
2021/08/04 08:07:10;;;;;;;2.37;1.73;;;;;;;21.24;79.25;100926.16;5094810;28;20445;-71
2021/08/04 08:09:36;;;;;;;2.57;1.90;;;;;;;21.21;77.50;100935.19;5094805;28;20484;-70
2021/08/04 08:12:04;;;;;;;2.20;2.00;;;;;;;21.23;79.00;100932.84;5094733;28;20445;-71
2021/08/04 08:14:32;;;;;;;1.87;1.73;;;;;;;21.20;80.04;100933.56;5094581;28;20465;-71
2021/08/04 08:16:59;;;;;;;4.27;2.77;;;;;;;21.24;78.80;100931.69;5094247;28;20436;-71
2021/08/04 08:19:25;;;;;;;2.90;2.07;;;;;;;21.28;78.28;100932.53;5094240;28;20919;-69
2021/08/04 08:21:52;;;;;;;7.53;2.57;;;;;;;21.30;78.57;100927.47;5094258;28;20440;-69
2021/08/04 08:24:20;;;;;;;3.20;2.13;;;;;;;21.31;78.33;100929.09;5116851;22;20511;-75
2021/08/04 08:26:47;;;;;;;2.97;1.90;;;;;;;21.34;77.74;100936.66;5094243;28;20445;-75
2021/08/04 08:29:14;;;;;;;1.90;1.70;;;;;;;21.42;78.76;100932.03;5094110;28;20510;-75
2021/08/04 08:31:42;;;;;;;2.50;2.00;;;;;;;21.41;79.16;100938.72;5094101;28;20470;-75
2021/08/04 08:34:08;;;;;;;2.47;1.80;;;;;;;21.45;78.86;100925.81;5094193;28;20470;-75
2021/08/04 08:36:38;;;;;;;3.00;2.20;;;;;;;21.51;79.12;100932.59;5093933;28;20452;-75
2021/08/04 08:39:05;;;;;;;2.60;1.97;;;;;;;21.51;78.46;100926.28;5093856;28;20463;-75
2021/08/04 08:41:32;;;;;;;2.50;1.90;;;;;;;21.52;78.70;100925.94;5094041;28;20440;-75
2021/08/04 08:43:58;;;;;;;3.30;2.00;;;;;;;21.53;78.56;100921.22;5094060;28;20461;-75
2021/08/04 08:46:31;;;;;;;1.90;1.70;;;;;;;21.50;77.92;100927.44;5093966;28;20445;-75
2021/08/04 08:49:01;;;;;;;2.60;2.00;;;;;;;21.40;77.95;100918.63;5093969;28;20533;-75
2021/08/04 08:51:28;;;;;;;2.13;1.93;;;;;;;21.42;78.02;100921.81;5093708;28;20432;-75
2021/08/04 08:53:55;;;;;;;4.70;1.70;;;;;;;21.48;78.19;100929.78;5093876;28;20468;-75
2021/08/04 08:56:21;;;;;;;2.87;2.07;;;;;;;21.52;78.98;100925.94;5093887;28;20443;-75
2021/08/04 08:58:49;;;;;;;4.00;2.30;;;;;;;21.63;79.02;100920.59;5093847;28;20440;-75
2021/08/04 09:01:16;;;;;;;2.37;2.17;;;;;;;21.74;78.26;100935.38;5093654;28;20448;-75
2021/08/04 09:03:43;;;;;;;3.30;1.60;;;;;;;21.72;75.49;100929.41;5093396;28;21030;-75
2021/08/04 09:06:11;;;;;;;2.60;2.40;;;;;;;21.80;76.89;100931.13;5093756;28;20448;-75
2021/08/04 09:08:39;;;;;;;4.30;1.90;;;;;;;21.94;77.18;100929.78;5093372;28;20824;-76
2021/08/04 09:11:12;;;;;;;2.47;2.23;;;;;;;22.07;76.29;100925.63;5092211;28;20449;-75
2021/08/04 09:13:38;;;;;;;2.40;2.10;;;;;;;22.13;75.22;100921.41;5093230;28;21038;-75
2021/08/04 09:16:07;;;;;;;3.10;2.30;;;;;;;22.29;75.48;100921.25;5093465;28;20433;-75
2021/08/04 09:18:41;;;;;;;2.20;1.93;;;;;;;22.40;74.29;100920.25;5093257;28;20440;-75
2021/08/04 09:21:08;;;;;;;2.40;1.80;;;;;;;22.51;73.88;100925.13;5093222;28;20440;-74
2021/08/04 09:23:43;;;;;;;2.17;1.73;;;;;;;22.61;73.35;100916.19;5093282;28;20475;-75
2021/08/04 09:26:10;;;;;;;2.50;2.00;;;;;;;22.75;72.92;100921.88;5093508;28;20435;-74
2021/08/04 09:28:55;;;;;;;2.80;2.23;;;;;;;22.99;72.41;100917.06;5093279;28;20455;-74
2021/08/04 09:31:41;;;;;;;2.60;1.90;;;;;;;23.12;71.16;100921.97;5093458;28;20445;-75
2021/08/04 09:34:26;;;;;;;2.53;2.10;;;;;;;23.20;69.38;100910.97;5100256;28;20845;-73
2021/08/04 09:36:59;;;;;;;2.77;2.20;;;;;;;23.30;69.30;100916.63;5093351;28;20437;-74
2021/08/04 09:39:27;;;;;;;6.70;1.80;;;;;;;23.41;69.74;100911.19;5092581;28;20834;-74
2021/08/04 09:41:54;;;;;;;2.47;2.10;;;;;;;23.48;67.50;100913.22;5093285;28;20456;-75
2021/08/04 09:44:21;;;;;;;2.20;2.00;;;;;;;23.52;67.39;100911.28;5093492;28;20461;-75
2021/08/04 09:46:47;;;;;;;2.67;2.00;;;;;;;23.56;67.27;100912.13;5093224;28;20445;-74
2021/08/04 09:49:16;;;;;;;2.80;2.37;;;;;;;23.50;67.48;100913.63;5093152;28;20488;-75
2021/08/04 09:51:43;;;;;;;2.70;2.00;;;;;;;23.58;67.92;100915.28;5092893;28;20961;-74
2021/08/04 09:54:11;;;;;;;1.80;1.63;;;;;;;23.61;68.19;100912.56;5093087;28;20472;-75
2021/08/04 09:56:50;;;;;;;2.00;1.83;;;;;;;23.52;66.48;100909.31;5093206;28;20475;-75
2021/08/04 09:59:16;;;;;;;3.17;1.70;;;;;;;23.56;70.25;100906.59;5093165;28;20420;-75
2021/08/04 10:01:43;;;;;;;4.70;2.70;;;;;;;23.59;67.76;100914.91;5093104;28;20861;-76
2021/08/04 10:04:10;;;;;;;1.87;1.73;;;;;;;23.75;67.98;100905.59;5093085;28;20460;-74
2021/08/04 10:06:38;;;;;;;2.03;1.83;;;;;;;23.63;62.63;100909.41;5093069;28;20444;-74
2021/08/04 10:09:07;;;;;;;2.10;1.63;;;;;;;23.53;65.31;100904.56;5092773;28;20537;-75
2021/08/04 10:11:34;;;;;;;3.87;3.10;;;;;;;23.27;66.42;100906.31;5093040;28;20484;-75
2021/08/04 10:14:02;;;;;;;1.87;1.70;;;;;;;23.34;67.75;100891.78;5096470;28;20486;-75
2021/08/04 10:16:32;;;;;;;4.43;2.30;;;;;;;23.53;67.95;100893.50;5097027;28;20447;-75
2021/08/04 10:18:59;;;;;;;2.43;1.73;;;;;;;23.61;67.87;100890.44;5097217;28;20452;-75
2021/08/04 10:21:26;;;;;;;2.40;1.80;;;;;;;23.67;68.04;100890.91;5096835;28;20813;-75
2021/08/04 10:23:53;;;;;;;1.67;1.50;;;;;;;23.59;66.56;100886.44;5096290;28;20985;-75
2021/08/04 10:26:21;;;;;;;1.23;1.13;;;;;;;23.63;64.88;100890.84;5096748;28;20444;-75
2021/08/04 10:28:51;;;;;;;2.30;1.50;;;;;;;23.66;64.14;100895.63;5096199;28;20930;-74
2021/08/04 10:31:20;;;;;;;7.53;1.70;;;;;;;23.87;65.33;100889.47;5096749;28;20436;-75
2021/08/04 10:33:47;;;;;;;2.00;1.50;;;;;;;23.99;64.16;100896.66;5096385;28;20828;-75
2021/08/04 10:36:18;;;;;;;1.87;1.60;;;;;;;23.90;62.78;100898.97;5096749;28;20442;-75
2021/08/04 10:38:46;;;;;;;2.33;1.63;;;;;;;23.51;62.28;100890.34;5096627;28;20456;-75
2021/08/04 10:41:15;;;;;;;2.57;1.73;;;;;;;23.11;63.59;100894.72;5096402;28;20436;-75
2021/08/04 10:43:45;;;;;;;2.00;1.70;;;;;;;23.15;63.81;100888.03;5096263;28;20456;-73
2021/08/04 10:46:41;;;;;;;2.03;1.47;;;;;;;23.04;64.17;100886.34;5096391;28;20465;-77
2021/08/04 10:49:20;;;;;;;1.03;0.97;;;;;;;23.15;66.12;100887.22;5090704;28;20905;-75
2021/08/04 10:52:09;;;;;;;2.70;1.27;;;;;;;23.16;64.46;100895.16;5096226;28;20424;-76
2021/08/04 10:54:36;;;;;;;1.90;1.40;;;;;;;23.08;64.82;100892.69;5096245;28;20479;-75
2021/08/04 10:57:10;;;;;;;1.27;1.17;;;;;;;23.01;65.22;100887.88;5096114;28;20447;-75
2021/08/04 10:59:37;;;;;;;1.60;1.50;;;;;;;23.11;65.92;100886.41;5095815;28;20800;-75
2021/08/04 11:02:31;;;;;;;1.70;1.20;;;;;;;23.46;64.95;100890.69;5096097;28;20444;-75
2021/08/04 11:04:59;;;;;;;2.60;1.37;;;;;;;23.65;65.04;100887.72;5095808;28;20464;-76
2021/08/04 11:07:26;;;;;;;3.20;1.33;;;;;;;23.76;64.72;100888.59;5096013;28;20532;-76
2021/08/04 11:10:01;;;;;;;1.43;1.03;;;;;;;23.70;63.39;100884.59;5096853;28;20834;-76
2021/08/04 11:12:43;;;;;;;1.23;1.10;;;;;;;23.47;62.91;100881.22;5096732;28;21020;-78
2021/08/04 11:15:29;;;;;;;1.63;1.30;;;;;;;23.21;64.79;100890.47;5097883;28;20468;-78
2021/08/04 11:18:02;;;;;;;1.47;1.20;;;;;;;22.96;65.37;100874.41;5098401;28;20453;-80
2021/08/04 11:20:28;;;;;;;1.27;1.10;;;;;;;22.73;65.48;100882.00;5098082;28;20457;-77
2021/08/04 11:22:55;;;;;;;2.20;1.50;;;;;;;22.64;67.21;100874.81;5097913;28;20443;-74
2021/08/04 11:25:33;;;;;;;1.97;1.20;;;;;;;22.64;68.31;100872.03;5095591;28;20476;-80